sensor_id;sensor_type;location;lat;lon;timestamp;P1;durP1;ratioP1;P2;durP2;ratioP2
56724;SDS011;42608;52.776;6.968;2022-08-19T00:01:20;6.60;;;6.00;;
56724;SDS011;42608;52.776;6.968;2022-08-19T00:03:47;5.22;;;4.72;;
56724;SDS011;42608;52.776;6.968;2022-08-19T00:06:13;5.63;;;5.13;;
56724;SDS011;42608;52.776;6.968;2022-08-19T00:08:39;7.78;;;6.38;;
56724;SDS011;42608;52.776;6.968;2022-08-19T00:11:05;7.20;;;6.50;;
56724;SDS011;42608;52.776;6.968;2022-08-19T00:13:32;6.97;;;6.32;;
56724;SDS011;42608;52.776;6.968;2022-08-19T00:15:58;6.53;;;6.00;;
56724;SDS011;42608;52.776;6.968;2022-08-19T00:18:24;7.28;;;6.45;;
56724;SDS011;42608;52.776;6.968;2022-08-19T00:20:51;8.20;;;7.43;;
56724;SDS011;42608;52.776;6.968;2022-08-19T00:23:16;9.60;;;7.03;;
56724;SDS011;42608;52.776;6.968;2022-08-19T00:25:43;7.80;;;7.10;;
56724;SDS011;42608;52.776;6.968;2022-08-19T00:28:09;8.68;;;6.65;;
56724;SDS011;42608;52.776;6.968;2022-08-19T00:30:34;7.22;;;6.57;;
56724;SDS011;42608;52.776;6.968;2022-08-19T00:33:00;7.75;;;7.05;;
56724;SDS011;42608;52.776;6.968;2022-08-19T00:35:26;11.88;;;7.32;;
56724;SDS011;42608;52.776;6.968;2022-08-19T00:37:52;8.68;;;7.80;;
56724;SDS011;42608;52.776;6.968;2022-08-19T00:40:18;7.68;;;6.75;;
56724;SDS011;42608;52.776;6.968;2022-08-19T00:42:45;7.97;;;7.22;;
56724;SDS011;42608;52.776;6.968;2022-08-19T00:45:13;9.63;;;7.90;;
56724;SDS011;42608;52.776;6.968;2022-08-19T00:47:42;8.93;;;7.45;;
56724;SDS011;42608;52.776;6.968;2022-08-19T00:50:09;7.80;;;7.07;;
56724;SDS011;42608;52.776;6.968;2022-08-19T00:52:41;9.48;;;8.13;;
56724;SDS011;42608;52.776;6.968;2022-08-19T00:55:13;9.82;;;8.93;;
56724;SDS011;42608;52.776;6.968;2022-08-19T01:00:14;8.05;;;7.25;;
56724;SDS011;42608;52.776;6.968;2022-08-19T01:02:42;6.40;;;5.90;;
56724;SDS011;42608;52.776;6.968;2022-08-19T01:05:13;6.95;;;5.65;;
56724;SDS011;42608;52.776;6.968;2022-08-19T01:07:43;6.75;;;6.15;;
56724;SDS011;42608;52.776;6.968;2022-08-19T01:10:11;6.93;;;6.32;;
56724;SDS011;42608;52.776;6.968;2022-08-19T01:12:40;5.47;;;4.97;;
56724;SDS011;42608;52.776;6.968;2022-08-19T01:15:07;4.90;;;4.50;;
56724;SDS011;42608;52.776;6.968;2022-08-19T01:17:35;6.32;;;5.82;;
56724;SDS011;42608;52.776;6.968;2022-08-19T01:20:03;9.32;;;8.48;;
56724;SDS011;42608;52.776;6.968;2022-08-19T01:22:34;9.00;;;8.18;;
56724;SDS011;42608;52.776;6.968;2022-08-19T01:25:07;10.73;;;9.73;;
56724;SDS011;42608;52.776;6.968;2022-08-19T01:27:39;10.10;;;9.10;;
56724;SDS011;42608;52.776;6.968;2022-08-19T01:30:09;10.40;;;9.50;;
56724;SDS011;42608;52.776;6.968;2022-08-19T01:32:37;9.68;;;8.77;;
56724;SDS011;42608;52.776;6.968;2022-08-19T01:35:03;9.50;;;8.70;;
56724;SDS011;42608;52.776;6.968;2022-08-19T01:37:29;10.27;;;9.25;;
56724;SDS011;42608;52.776;6.968;2022-08-19T01:40:17;10.15;;;9.25;;
56724;SDS011;42608;52.776;6.968;2022-08-19T01:42:46;10.80;;;9.90;;
56724;SDS011;42608;52.776;6.968;2022-08-19T01:45:16;10.82;;;9.82;;
56724;SDS011;42608;52.776;6.968;2022-08-19T01:47:43;7.60;;;7.00;;
56724;SDS011;42608;52.776;6.968;2022-08-19T01:50:09;7.93;;;7.10;;
56724;SDS011;42608;52.776;6.968;2022-08-19T01:52:37;8.80;;;8.10;;
56724;SDS011;42608;52.776;6.968;2022-08-19T01:55:06;8.15;;;7.47;;
56724;SDS011;42608;52.776;6.968;2022-08-19T01:57:33;9.48;;;8.38;;
56724;SDS011;42608;52.776;6.968;2022-08-19T01:59:59;8.40;;;7.65;;
56724;SDS011;42608;52.776;6.968;2022-08-19T02:02:27;8.48;;;7.78;;
56724;SDS011;42608;52.776;6.968;2022-08-19T02:04:52;6.68;;;6.18;;
56724;SDS011;42608;52.776;6.968;2022-08-19T02:07:19;6.38;;;5.85;;
56724;SDS011;42608;52.776;6.968;2022-08-19T02:09:46;7.07;;;6.47;;
56724;SDS011;42608;52.776;6.968;2022-08-19T02:12:13;5.60;;;5.20;;
56724;SDS011;42608;52.776;6.968;2022-08-19T02:14:39;7.45;;;6.85;;
56724;SDS011;42608;52.776;6.968;2022-08-19T02:17:05;7.40;;;6.80;;
56724;SDS011;42608;52.776;6.968;2022-08-19T02:19:31;7.53;;;6.93;;
56724;SDS011;42608;52.776;6.968;2022-08-19T02:21:58;6.97;;;6.38;;
56724;SDS011;42608;52.776;6.968;2022-08-19T02:24:25;8.23;;;7.53;;
56724;SDS011;42608;52.776;6.968;2022-08-19T02:26:51;7.07;;;6.47;;
56724;SDS011;42608;52.776;6.968;2022-08-19T02:29:17;8.10;;;7.43;;
56724;SDS011;42608;52.776;6.968;2022-08-19T02:31:43;8.07;;;7.38;;
56724;SDS011;42608;52.776;6.968;2022-08-19T02:34:08;9.02;;;8.13;;
56724;SDS011;42608;52.776;6.968;2022-08-19T02:36:34;7.50;;;6.80;;
56724;SDS011;42608;52.776;6.968;2022-08-19T02:39:00;9.60;;;8.80;;
56724;SDS011;42608;52.776;6.968;2022-08-19T02:41:26;10.02;;;9.02;;
56724;SDS011;42608;52.776;6.968;2022-08-19T02:43:56;9.48;;;8.57;;
56724;SDS011;42608;52.776;6.968;2022-08-19T02:46:27;9.75;;;8.95;;
56724;SDS011;42608;52.776;6.968;2022-08-19T02:48:59;10.27;;;9.27;;
56724;SDS011;42608;52.776;6.968;2022-08-19T02:51:28;10.18;;;8.77;;
56724;SDS011;42608;52.776;6.968;2022-08-19T02:53:56;15.13;;;9.52;;
56724;SDS011;42608;52.776;6.968;2022-08-19T02:56:23;8.57;;;7.88;;
56724;SDS011;42608;52.776;6.968;2022-08-19T02:58:52;9.55;;;8.65;;
56724;SDS011;42608;52.776;6.968;2022-08-19T03:01:25;10.07;;;8.95;;
56724;SDS011;42608;52.776;6.968;2022-08-19T03:03:56;10.35;;;9.45;;
56724;SDS011;42608;52.776;6.968;2022-08-19T03:06:31;9.73;;;8.70;;
56724;SDS011;42608;52.776;6.968;2022-08-19T03:09:00;8.73;;;7.93;;
56724;SDS011;42608;52.776;6.968;2022-08-19T03:11:30;7.82;;;6.45;;
56724;SDS011;42608;52.776;6.968;2022-08-19T03:13:57;9.20;;;7.97;;
56724;SDS011;42608;52.776;6.968;2022-08-19T03:16:26;7.85;;;7.15;;
56724;SDS011;42608;52.776;6.968;2022-08-19T03:18:55;7.82;;;7.03;;
56724;SDS011;42608;52.776;6.968;2022-08-19T03:21:25;6.53;;;5.85;;
56724;SDS011;42608;52.776;6.968;2022-08-19T03:23:56;5.80;;;5.30;;
56724;SDS011;42608;52.776;6.968;2022-08-19T03:26:23;6.03;;;5.53;;
56724;SDS011;42608;52.776;6.968;2022-08-19T03:28:48;6.32;;;5.72;;
56724;SDS011;42608;52.776;6.968;2022-08-19T03:31:16;7.60;;;6.93;;
56724;SDS011;42608;52.776;6.968;2022-08-19T03:33:47;9.25;;;7.63;;
56724;SDS011;42608;52.776;6.968;2022-08-19T03:36:16;12.77;;;9.63;;
56724;SDS011;42608;52.776;6.968;2022-08-19T03:38:49;17.20;;;13.20;;
56724;SDS011;42608;52.776;6.968;2022-08-19T03:41:18;15.95;;;11.68;;
56724;SDS011;42608;52.776;6.968;2022-08-19T03:43:48;11.65;;;10.20;;
56724;SDS011;42608;52.776;6.968;2022-08-19T03:46:19;11.65;;;10.07;;
56724;SDS011;42608;52.776;6.968;2022-08-19T03:48:47;9.70;;;8.80;;
56724;SDS011;42608;52.776;6.968;2022-08-19T03:51:19;12.02;;;9.77;;
56724;SDS011;42608;52.776;6.968;2022-08-19T03:53:46;14.45;;;10.98;;
56724;SDS011;42608;52.776;6.968;2022-08-19T03:56:12;14.38;;;10.55;;
56724;SDS011;42608;52.776;6.968;2022-08-19T03:58:38;15.77;;;11.95;;
56724;SDS011;42608;52.776;6.968;2022-08-19T04:01:08;14.13;;;10.48;;
56724;SDS011;42608;52.776;6.968;2022-08-19T04:03:40;13.43;;;10.15;;
56724;SDS011;42608;52.776;6.968;2022-08-19T04:06:13;12.60;;;10.15;;
56724;SDS011;42608;52.776;6.968;2022-08-19T04:08:41;13.85;;;10.05;;
56724;SDS011;42608;52.776;6.968;2022-08-19T04:11:09;16.02;;;10.95;;
56724;SDS011;42608;52.776;6.968;2022-08-19T04:13:36;14.98;;;10.85;;
56724;SDS011;42608;52.776;6.968;2022-08-19T04:16:03;14.30;;;10.10;;
56724;SDS011;42608;52.776;6.968;2022-08-19T04:18:29;11.55;;;9.73;;
56724;SDS011;42608;52.776;6.968;2022-08-19T04:20:56;13.23;;;10.60;;
56724;SDS011;42608;52.776;6.968;2022-08-19T04:23:22;12.30;;;9.73;;
56724;SDS011;42608;52.776;6.968;2022-08-19T04:25:48;11.35;;;8.75;;
56724;SDS011;42608;52.776;6.968;2022-08-19T04:28:14;10.77;;;7.53;;
56724;SDS011;42608;52.776;6.968;2022-08-19T04:30:40;9.95;;;7.10;;
56724;SDS011;42608;52.776;6.968;2022-08-19T04:33:09;12.80;;;9.40;;
56724;SDS011;42608;52.776;6.968;2022-08-19T04:35:45;13.73;;;12.18;;
56724;SDS011;42608;52.776;6.968;2022-08-19T04:38:12;16.90;;;13.88;;
56724;SDS011;42608;52.776;6.968;2022-08-19T04:40:43;20.48;;;15.80;;
56724;SDS011;42608;52.776;6.968;2022-08-19T04:43:30;19.23;;;17.33;;
56724;SDS011;42608;52.776;6.968;2022-08-19T04:45:57;18.77;;;16.98;;
56724;SDS011;42608;52.776;6.968;2022-08-19T04:48:23;20.80;;;18.60;;
56724;SDS011;42608;52.776;6.968;2022-08-19T04:50:53;20.80;;;18.85;;
56724;SDS011;42608;52.776;6.968;2022-08-19T04:53:24;19.98;;;17.92;;
56724;SDS011;42608;52.776;6.968;2022-08-19T04:55:51;20.08;;;18.00;;
56724;SDS011;42608;52.776;6.968;2022-08-19T04:58:17;19.08;;;17.13;;
56724;SDS011;42608;52.776;6.968;2022-08-19T05:00:43;20.15;;;18.05;;
56724;SDS011;42608;52.776;6.968;2022-08-19T05:03:09;20.48;;;18.48;;
56724;SDS011;42608;52.776;6.968;2022-08-19T05:05:39;22.67;;;18.70;;
56724;SDS011;42608;52.776;6.968;2022-08-19T05:08:05;20.65;;;18.45;;
56724;SDS011;42608;52.776;6.968;2022-08-19T05:10:34;22.77;;;20.33;;
56724;SDS011;42608;52.776;6.968;2022-08-19T05:13:01;21.80;;;19.58;;
56724;SDS011;42608;52.776;6.968;2022-08-19T05:15:27;21.92;;;19.73;;
56724;SDS011;42608;52.776;6.968;2022-08-19T05:17:53;21.63;;;19.35;;
56724;SDS011;42608;52.776;6.968;2022-08-19T05:20:38;20.63;;;18.48;;
56724;SDS011;42608;52.776;6.968;2022-08-19T05:23:22;22.02;;;17.17;;
56724;SDS011;42608;52.776;6.968;2022-08-19T05:25:48;22.08;;;16.85;;
56724;SDS011;42608;52.776;6.968;2022-08-19T05:28:15;19.92;;;18.05;;
56724;SDS011;42608;52.776;6.968;2022-08-19T05:30:41;18.80;;;16.85;;
56724;SDS011;42608;52.776;6.968;2022-08-19T05:33:08;19.85;;;17.90;;
56724;SDS011;42608;52.776;6.968;2022-08-19T05:35:35;18.35;;;16.42;;
56724;SDS011;42608;52.776;6.968;2022-08-19T05:38:02;17.30;;;15.70;;
56724;SDS011;42608;52.776;6.968;2022-08-19T05:40:28;18.20;;;15.48;;
56724;SDS011;42608;52.776;6.968;2022-08-19T05:42:54;19.15;;;16.90;;
56724;SDS011;42608;52.776;6.968;2022-08-19T05:45:19;22.10;;;18.02;;
56724;SDS011;42608;52.776;6.968;2022-08-19T05:47:47;19.13;;;17.13;;
56724;SDS011;42608;52.776;6.968;2022-08-19T05:50:13;18.48;;;16.67;;
56724;SDS011;42608;52.776;6.968;2022-08-19T05:52:39;20.75;;;18.60;;
56724;SDS011;42608;52.776;6.968;2022-08-19T05:55:05;20.05;;;18.13;;
56724;SDS011;42608;52.776;6.968;2022-08-19T05:57:31;20.80;;;18.60;;
56724;SDS011;42608;52.776;6.968;2022-08-19T05:59:57;20.58;;;18.45;;
56724;SDS011;42608;52.776;6.968;2022-08-19T06:02:25;22.63;;;18.63;;
56724;SDS011;42608;52.776;6.968;2022-08-19T06:04:52;23.38;;;19.48;;
56724;SDS011;42608;52.776;6.968;2022-08-19T06:07:17;19.70;;;17.80;;
56724;SDS011;42608;52.776;6.968;2022-08-19T06:09:44;19.73;;;17.73;;
56724;SDS011;42608;52.776;6.968;2022-08-19T06:12:10;20.73;;;18.23;;
56724;SDS011;42608;52.776;6.968;2022-08-19T06:14:35;20.83;;;18.58;;
56724;SDS011;42608;52.776;6.968;2022-08-19T06:17:01;21.27;;;19.08;;
56724;SDS011;42608;52.776;6.968;2022-08-19T06:19:28;21.52;;;18.50;;
56724;SDS011;42608;52.776;6.968;2022-08-19T06:21:55;20.77;;;17.58;;
56724;SDS011;42608;52.776;6.968;2022-08-19T06:24:24;21.58;;;19.30;;
56724;SDS011;42608;52.776;6.968;2022-08-19T06:26:52;22.33;;;17.77;;
56724;SDS011;42608;52.776;6.968;2022-08-19T06:29:20;20.20;;;16.38;;
56724;SDS011;42608;52.776;6.968;2022-08-19T06:31:49;19.02;;;17.05;;
56724;SDS011;42608;52.776;6.968;2022-08-19T06:34:17;19.52;;;17.58;;
56724;SDS011;42608;52.776;6.968;2022-08-19T06:36:45;20.08;;;16.65;;
56724;SDS011;42608;52.776;6.968;2022-08-19T06:39:23;18.15;;;15.65;;
56724;SDS011;42608;52.776;6.968;2022-08-19T06:41:50;18.95;;;16.98;;
56724;SDS011;42608;52.776;6.968;2022-08-19T06:44:19;18.08;;;16.15;;
56724;SDS011;42608;52.776;6.968;2022-08-19T06:46:47;19.15;;;17.15;;
56724;SDS011;42608;52.776;6.968;2022-08-19T06:49:14;19.20;;;17.23;;
56724;SDS011;42608;52.776;6.968;2022-08-19T06:51:42;18.98;;;16.98;;
56724;SDS011;42608;52.776;6.968;2022-08-19T06:54:09;19.23;;;16.92;;
56724;SDS011;42608;52.776;6.968;2022-08-19T06:56:36;18.42;;;16.58;;
56724;SDS011;42608;52.776;6.968;2022-08-19T06:59:09;19.58;;;16.83;;
56724;SDS011;42608;52.776;6.968;2022-08-19T07:01:37;26.00;;;17.27;;
56724;SDS011;42608;52.776;6.968;2022-08-19T07:04:07;17.80;;;15.63;;
56724;SDS011;42608;52.776;6.968;2022-08-19T07:06:34;21.67;;;16.70;;
56724;SDS011;42608;52.776;6.968;2022-08-19T07:09:00;23.55;;;17.00;;
56724;SDS011;42608;52.776;6.968;2022-08-19T07:11:27;20.63;;;17.05;;
56724;SDS011;42608;52.776;6.968;2022-08-19T07:13:53;19.27;;;17.15;;
56724;SDS011;42608;52.776;6.968;2022-08-19T07:16:19;19.90;;;16.80;;
56724;SDS011;42608;52.776;6.968;2022-08-19T07:18:46;18.52;;;16.63;;
56724;SDS011;42608;52.776;6.968;2022-08-19T07:21:16;17.42;;;15.65;;
56724;SDS011;42608;52.776;6.968;2022-08-19T07:23:49;18.00;;;16.08;;
56724;SDS011;42608;52.776;6.968;2022-08-19T07:26:20;26.73;;;16.67;;
56724;SDS011;42608;52.776;6.968;2022-08-19T07:28:50;17.63;;;14.30;;
56724;SDS011;42608;52.776;6.968;2022-08-19T07:31:18;19.10;;;14.00;;
56724;SDS011;42608;52.776;6.968;2022-08-19T07:33:46;15.82;;;13.88;;
56724;SDS011;42608;52.776;6.968;2022-08-19T07:36:14;14.77;;;13.27;;
56724;SDS011;42608;52.776;6.968;2022-08-19T07:38:43;16.38;;;14.02;;
56724;SDS011;42608;52.776;6.968;2022-08-19T07:41:13;15.75;;;14.15;;
56724;SDS011;42608;52.776;6.968;2022-08-19T07:43:41;17.65;;;13.35;;
56724;SDS011;42608;52.776;6.968;2022-08-19T07:46:08;15.65;;;13.73;;
56724;SDS011;42608;52.776;6.968;2022-08-19T07:48:35;15.52;;;12.57;;
56724;SDS011;42608;52.776;6.968;2022-08-19T07:51:02;13.45;;;12.13;;
56724;SDS011;42608;52.776;6.968;2022-08-19T07:53:30;15.40;;;13.55;;
56724;SDS011;42608;52.776;6.968;2022-08-19T07:55:58;14.07;;;12.52;;
56724;SDS011;42608;52.776;6.968;2022-08-19T07:58:31;14.88;;;13.32;;
56724;SDS011;42608;52.776;6.968;2022-08-19T08:00:59;18.30;;;12.95;;
56724;SDS011;42608;52.776;6.968;2022-08-19T08:03:25;12.55;;;11.45;;
56724;SDS011;42608;52.776;6.968;2022-08-19T08:06:11;13.00;;;11.75;;
56724;SDS011;42608;52.776;6.968;2022-08-19T08:08:57;13.98;;;12.35;;
56724;SDS011;42608;52.776;6.968;2022-08-19T08:11:46;12.65;;;10.93;;
56724;SDS011;42608;52.776;6.968;2022-08-19T08:14:19;14.07;;;12.68;;
56724;SDS011;42608;52.776;6.968;2022-08-19T08:16:47;14.45;;;13.02;;
56724;SDS011;42608;52.776;6.968;2022-08-19T08:19:15;15.30;;;13.25;;
56724;SDS011;42608;52.776;6.968;2022-08-19T08:21:41;13.90;;;12.38;;
56724;SDS011;42608;52.776;6.968;2022-08-19T08:24:07;15.40;;;13.93;;
56724;SDS011;42608;52.776;6.968;2022-08-19T08:26:33;14.57;;;12.75;;
56724;SDS011;42608;52.776;6.968;2022-08-19T08:28:59;14.68;;;13.27;;
56724;SDS011;42608;52.776;6.968;2022-08-19T08:31:25;16.00;;;14.40;;
56724;SDS011;42608;52.776;6.968;2022-08-19T08:33:51;15.05;;;13.68;;
56724;SDS011;42608;52.776;6.968;2022-08-19T08:36:17;15.57;;;14.15;;
56724;SDS011;42608;52.776;6.968;2022-08-19T08:38:43;15.98;;;14.57;;
56724;SDS011;42608;52.776;6.968;2022-08-19T08:41:23;16.88;;;15.27;;
56724;SDS011;42608;52.776;6.968;2022-08-19T08:43:55;16.20;;;14.55;;
56724;SDS011;42608;52.776;6.968;2022-08-19T08:46:36;17.35;;;15.20;;
56724;SDS011;42608;52.776;6.968;2022-08-19T08:51:45;15.68;;;13.25;;
56724;SDS011;42608;52.776;6.968;2022-08-19T08:54:45;15.32;;;13.77;;
56724;SDS011;42608;52.776;6.968;2022-08-19T09:00:18;18.20;;;16.05;;
56724;SDS011;42608;52.776;6.968;2022-08-19T09:02:47;17.55;;;15.80;;
56724;SDS011;42608;52.776;6.968;2022-08-19T09:05:13;20.92;;;14.95;;
56724;SDS011;42608;52.776;6.968;2022-08-19T09:10:31;15.60;;;14.20;;
56724;SDS011;42608;52.776;6.968;2022-08-19T09:15:56;15.65;;;14.20;;
56724;SDS011;42608;52.776;6.968;2022-08-19T09:18:49;16.92;;;15.27;;
56724;SDS011;42608;52.776;6.968;2022-08-19T09:21:18;16.37;;;14.87;;
56724;SDS011;42608;52.776;6.968;2022-08-19T09:23:45;14.95;;;13.35;;
56724;SDS011;42608;52.776;6.968;2022-08-19T09:26:15;15.43;;;13.98;;
56724;SDS011;42608;52.776;6.968;2022-08-19T09:28:43;14.43;;;12.93;;
56724;SDS011;42608;52.776;6.968;2022-08-19T09:31:11;14.88;;;13.38;;
56724;SDS011;42608;52.776;6.968;2022-08-19T09:33:38;15.32;;;14.02;;
56724;SDS011;42608;52.776;6.968;2022-08-19T09:36:08;13.95;;;12.55;;
56724;SDS011;42608;52.776;6.968;2022-08-19T09:38:36;19.65;;;14.38;;
56724;SDS011;42608;52.776;6.968;2022-08-19T09:41:14;15.15;;;13.75;;
56724;SDS011;42608;52.776;6.968;2022-08-19T09:43:43;16.27;;;14.52;;
56724;SDS011;42608;52.776;6.968;2022-08-19T09:46:11;16.02;;;14.52;;
56724;SDS011;42608;52.776;6.968;2022-08-19T09:48:41;14.10;;;11.85;;
56724;SDS011;42608;52.776;6.968;2022-08-19T09:51:08;15.18;;;13.77;;
56724;SDS011;42608;52.776;6.968;2022-08-19T09:53:36;12.25;;;11.05;;
56724;SDS011;42608;52.776;6.968;2022-08-19T09:56:03;13.38;;;12.10;;
56724;SDS011;42608;52.776;6.968;2022-08-19T09:58:30;13.70;;;12.45;;
56724;SDS011;42608;52.776;6.968;2022-08-19T10:00:57;10.98;;;9.90;;
56724;SDS011;42608;52.776;6.968;2022-08-19T10:03:25;10.82;;;8.20;;
56724;SDS011;42608;52.776;6.968;2022-08-19T10:05:52;8.07;;;7.28;;
56724;SDS011;42608;52.776;6.968;2022-08-19T10:08:20;8.30;;;7.50;;
56724;SDS011;42608;52.776;6.968;2022-08-19T10:10:48;8.90;;;8.10;;
56724;SDS011;42608;52.776;6.968;2022-08-19T10:13:16;8.15;;;7.32;;
56724;SDS011;42608;52.776;6.968;2022-08-19T10:15:55;7.85;;;6.68;;
56724;SDS011;42608;52.776;6.968;2022-08-19T10:18:26;8.45;;;7.75;;
56724;SDS011;42608;52.776;6.968;2022-08-19T10:20:52;10.45;;;8.70;;
56724;SDS011;42608;52.776;6.968;2022-08-19T10:23:38;8.18;;;7.47;;
56724;SDS011;42608;52.776;6.968;2022-08-19T10:26:10;8.25;;;7.55;;
56724;SDS011;42608;52.776;6.968;2022-08-19T10:28:37;9.45;;;8.60;;
56724;SDS011;42608;52.776;6.968;2022-08-19T10:31:13;9.32;;;8.52;;
56724;SDS011;42608;52.776;6.968;2022-08-19T10:33:40;9.82;;;9.02;;
56724;SDS011;42608;52.776;6.968;2022-08-19T10:36:07;9.68;;;8.77;;
56724;SDS011;42608;52.776;6.968;2022-08-19T10:38:40;8.05;;;7.28;;
56724;SDS011;42608;52.776;6.968;2022-08-19T10:41:13;8.30;;;7.43;;
56724;SDS011;42608;52.776;6.968;2022-08-19T10:43:41;8.63;;;7.47;;
56724;SDS011;42608;52.776;6.968;2022-08-19T10:46:11;10.60;;;8.82;;
56724;SDS011;42608;52.776;6.968;2022-08-19T10:48:39;8.10;;;7.40;;
56724;SDS011;42608;52.776;6.968;2022-08-19T10:51:06;10.25;;;7.68;;
56724;SDS011;42608;52.776;6.968;2022-08-19T10:53:51;9.05;;;8.18;;
56724;SDS011;42608;52.776;6.968;2022-08-19T10:56:17;8.43;;;7.72;;
56724;SDS011;42608;52.776;6.968;2022-08-19T10:59:02;9.75;;;8.75;;
56724;SDS011;42608;52.776;6.968;2022-08-19T11:01:28;12.15;;;11.07;;
56724;SDS011;42608;52.776;6.968;2022-08-19T11:03:56;10.20;;;9.30;;
56724;SDS011;42608;52.776;6.968;2022-08-19T11:06:22;10.98;;;9.05;;
56724;SDS011;42608;52.776;6.968;2022-08-19T11:08:50;12.02;;;10.88;;
56724;SDS011;42608;52.776;6.968;2022-08-19T11:11:19;10.57;;;9.55;;
56724;SDS011;42608;52.776;6.968;2022-08-19T11:13:48;8.88;;;8.00;;
56724;SDS011;42608;52.776;6.968;2022-08-19T11:16:16;10.88;;;9.73;;
56724;SDS011;42608;52.776;6.968;2022-08-19T11:18:44;11.98;;;10.85;;
56724;SDS011;42608;52.776;6.968;2022-08-19T11:21:26;10.70;;;9.70;;
56724;SDS011;42608;52.776;6.968;2022-08-19T11:23:58;11.57;;;10.50;;
56724;SDS011;42608;52.776;6.968;2022-08-19T11:26:28;11.25;;;9.85;;
56724;SDS011;42608;52.776;6.968;2022-08-19T11:28:55;8.68;;;7.93;;
56724;SDS011;42608;52.776;6.968;2022-08-19T11:31:23;8.23;;;7.43;;
56724;SDS011;42608;52.776;6.968;2022-08-19T11:33:51;10.38;;;8.35;;
56724;SDS011;42608;52.776;6.968;2022-08-19T11:36:19;9.75;;;8.80;;
56724;SDS011;42608;52.776;6.968;2022-08-19T11:38:46;10.38;;;9.48;;
56724;SDS011;42608;52.776;6.968;2022-08-19T11:41:14;9.68;;;7.93;;
56724;SDS011;42608;52.776;6.968;2022-08-19T11:43:41;8.80;;;8.00;;
56724;SDS011;42608;52.776;6.968;2022-08-19T11:46:08;11.20;;;10.10;;
56724;SDS011;42608;52.776;6.968;2022-08-19T11:48:35;11.73;;;10.30;;
56724;SDS011;42608;52.776;6.968;2022-08-19T11:51:06;11.32;;;10.23;;
56724;SDS011;42608;52.776;6.968;2022-08-19T11:53:34;10.57;;;8.25;;
56724;SDS011;42608;52.776;6.968;2022-08-19T11:56:00;8.25;;;7.47;;
56724;SDS011;42608;52.776;6.968;2022-08-19T11:58:27;8.20;;;7.35;;
56724;SDS011;42608;52.776;6.968;2022-08-19T12:00:54;9.52;;;6.93;;
56724;SDS011;42608;52.776;6.968;2022-08-19T12:03:20;8.38;;;7.55;;
56724;SDS011;42608;52.776;6.968;2022-08-19T12:05:46;8.75;;;7.85;;
56724;SDS011;42608;52.776;6.968;2022-08-19T12:08:12;8.63;;;7.82;;
56724;SDS011;42608;52.776;6.968;2022-08-19T12:10:39;11.05;;;8.05;;
56724;SDS011;42608;52.776;6.968;2022-08-19T12:13:07;9.10;;;7.00;;
56724;SDS011;42608;52.776;6.968;2022-08-19T12:15:37;7.53;;;6.57;;
56724;SDS011;42608;52.776;6.968;2022-08-19T12:18:08;7.75;;;7.00;;
56724;SDS011;42608;52.776;6.968;2022-08-19T12:20:35;7.20;;;6.60;;
56724;SDS011;42608;52.776;6.968;2022-08-19T12:23:03;7.55;;;6.85;;
56724;SDS011;42608;52.776;6.968;2022-08-19T12:25:30;7.70;;;7.00;;
56724;SDS011;42608;52.776;6.968;2022-08-19T12:27:57;8.07;;;7.32;;
56724;SDS011;42608;52.776;6.968;2022-08-19T12:30:23;10.15;;;9.15;;
56724;SDS011;42608;52.776;6.968;2022-08-19T12:32:49;8.48;;;7.57;;
56724;SDS011;42608;52.776;6.968;2022-08-19T12:35:16;7.40;;;6.80;;
56724;SDS011;42608;52.776;6.968;2022-08-19T12:37:42;8.18;;;7.47;;
56724;SDS011;42608;52.776;6.968;2022-08-19T12:40:09;8.63;;;7.82;;
56724;SDS011;42608;52.776;6.968;2022-08-19T12:42:37;7.93;;;7.20;;
56724;SDS011;42608;52.776;6.968;2022-08-19T12:45:07;9.18;;;8.25;;
56724;SDS011;42608;52.776;6.968;2022-08-19T12:47:37;8.73;;;7.95;;
56724;SDS011;42608;52.776;6.968;2022-08-19T12:50:03;8.50;;;7.60;;
56724;SDS011;42608;52.776;6.968;2022-08-19T12:52:33;8.10;;;6.35;;
56724;SDS011;42608;52.776;6.968;2022-08-19T12:55:02;9.45;;;7.22;;
56724;SDS011;42608;52.776;6.968;2022-08-19T12:57:30;8.90;;;7.18;;
56724;SDS011;42608;52.776;6.968;2022-08-19T13:00:20;8.40;;;7.05;;
56724;SDS011;42608;52.776;6.968;2022-08-19T13:02:46;8.88;;;7.97;;
56724;SDS011;42608;52.776;6.968;2022-08-19T13:05:18;7.80;;;6.90;;
56724;SDS011;42608;52.776;6.968;2022-08-19T13:07:45;7.28;;;6.57;;
56724;SDS011;42608;52.776;6.968;2022-08-19T13:10:13;6.30;;;5.80;;
56724;SDS011;42608;52.776;6.968;2022-08-19T13:12:40;6.15;;;5.30;;
56724;SDS011;42608;52.776;6.968;2022-08-19T13:15:08;5.50;;;5.00;;
56724;SDS011;42608;52.776;6.968;2022-08-19T13:17:34;7.65;;;5.60;;
56724;SDS011;42608;52.776;6.968;2022-08-19T13:20:00;6.68;;;5.93;;
56724;SDS011;42608;52.776;6.968;2022-08-19T13:22:27;6.68;;;6.03;;
56724;SDS011;42608;52.776;6.968;2022-08-19T13:24:53;7.38;;;5.60;;
56724;SDS011;42608;52.776;6.968;2022-08-19T13:27:18;6.57;;;5.70;;
56724;SDS011;42608;52.776;6.968;2022-08-19T13:29:44;7.07;;;6.05;;
56724;SDS011;42608;52.776;6.968;2022-08-19T13:32:28;8.23;;;5.63;;
56724;SDS011;42608;52.776;6.968;2022-08-19T13:35:14;7.78;;;7.05;;
56724;SDS011;42608;52.776;6.968;2022-08-19T13:37:40;7.03;;;6.32;;
56724;SDS011;42608;52.776;6.968;2022-08-19T13:40:11;6.75;;;6.03;;
56724;SDS011;42608;52.776;6.968;2022-08-19T13:42:43;7.07;;;6.32;;
56724;SDS011;42608;52.776;6.968;2022-08-19T13:45:11;6.95;;;5.78;;
56724;SDS011;42608;52.776;6.968;2022-08-19T13:47:37;6.13;;;5.53;;
56724;SDS011;42608;52.776;6.968;2022-08-19T13:50:10;6.47;;;5.70;;
56724;SDS011;42608;52.776;6.968;2022-08-19T13:52:38;5.25;;;4.80;;
56724;SDS011;42608;52.776;6.968;2022-08-19T13:55:04;4.95;;;4.40;;
56724;SDS011;42608;52.776;6.968;2022-08-19T13:57:31;4.60;;;4.20;;
56724;SDS011;42608;52.776;6.968;2022-08-19T13:59:57;7.20;;;4.60;;
56724;SDS011;42608;52.776;6.968;2022-08-19T14:02:24;5.00;;;4.20;;
56724;SDS011;42608;52.776;6.968;2022-08-19T14:04:50;3.95;;;3.60;;
56724;SDS011;42608;52.776;6.968;2022-08-19T14:07:15;4.65;;;4.20;;
56724;SDS011;42608;52.776;6.968;2022-08-19T14:09:41;7.32;;;4.35;;
56724;SDS011;42608;52.776;6.968;2022-08-19T14:12:07;4.72;;;4.28;;
56724;SDS011;42608;52.776;6.968;2022-08-19T14:14:37;6.30;;;5.55;;
56724;SDS011;42608;52.776;6.968;2022-08-19T14:17:07;5.72;;;5.20;;
56724;SDS011;42608;52.776;6.968;2022-08-19T14:19:34;6.90;;;6.15;;
56724;SDS011;42608;52.776;6.968;2022-08-19T14:22:00;6.80;;;6.10;;
56724;SDS011;42608;52.776;6.968;2022-08-19T14:24:26;6.35;;;5.75;;
56724;SDS011;42608;52.776;6.968;2022-08-19T14:26:52;6.05;;;5.10;;
56724;SDS011;42608;52.776;6.968;2022-08-19T14:29:17;5.38;;;4.43;;
56724;SDS011;42608;52.776;6.968;2022-08-19T14:31:43;5.80;;;4.57;;
56724;SDS011;42608;52.776;6.968;2022-08-19T14:34:09;4.95;;;4.45;;
56724;SDS011;42608;52.776;6.968;2022-08-19T14:36:36;6.10;;;5.25;;
56724;SDS011;42608;52.776;6.968;2022-08-19T14:39:03;5.43;;;4.88;;
56724;SDS011;42608;52.776;6.968;2022-08-19T14:41:29;7.32;;;5.57;;
56724;SDS011;42608;52.776;6.968;2022-08-19T14:43:58;6.07;;;5.57;;
56724;SDS011;42608;52.776;6.968;2022-08-19T14:46:25;7.45;;;6.72;;
56724;SDS011;42608;52.776;6.968;2022-08-19T14:48:53;6.57;;;6.07;;
56724;SDS011;42608;52.776;6.968;2022-08-19T14:51:20;7.05;;;6.40;;
56724;SDS011;42608;52.776;6.968;2022-08-19T14:53:47;6.80;;;5.90;;
56724;SDS011;42608;52.776;6.968;2022-08-19T14:56:14;8.43;;;5.15;;
56724;SDS011;42608;52.776;6.968;2022-08-19T14:58:43;6.35;;;5.53;;